Terminal Aerodrome Forecast
Issued by NWS

Home | Current Version | Previous Version | Text Only | Print | Product List | Glossary On
Versions: 1 2 3 4 5 6 7 8 9 10 11 12 13 14 15 16 17
000
FTPA31 PHFO 201359 AAA
TAFSTU
TAF AMD
NSTU 201359Z 2014/2112 32012KT P6SM VCSH SCT018 BKN040 BKN120=

USA.gov is the U.S. government's official web portal to all federal, state and local government web resources and services.